createdAt,value
2022-10-06T00:00:41.549Z,89.51
2022-10-06T00:01:41.754Z,89.31
2022-10-06T00:02:41.949Z,89.31
2022-10-06T00:03:42.014Z,89.31
2022-10-06T00:04:42.187Z,89.31
2022-10-06T00:05:42.339Z,89.31
2022-10-06T00:06:42.504Z,89.01
2022-10-06T00:07:42.664Z,88.76
2022-10-06T00:08:42.843Z,88.66
2022-10-06T00:09:43.011Z,88.56
2022-10-06T00:10:43.174Z,88.56
2022-10-06T00:11:43.334Z,88.66
2022-10-06T00:12:43.535Z,88.76
2022-10-06T00:13:43.700Z,88.86
2022-10-06T00:14:43.865Z,88.96
2022-10-06T00:15:44.065Z,88.96
2022-10-06T00:16:44.227Z,89.11
2022-10-06T00:17:44.400Z,89.21
2022-10-06T00:18:44.563Z,89.41
2022-10-06T00:19:44.722Z,89.41
2022-10-06T00:20:44.884Z,89.51
2022-10-06T00:21:45.046Z,89.72
2022-10-06T00:22:45.237Z,89.81
2022-10-06T00:23:52.414Z,89.81
2022-10-06T00:24:45.549Z,89.92
2022-10-06T00:25:45.710Z,89.92
2022-10-06T00:26:46.624Z,90.02
2022-10-06T00:27:46.029Z,89.81
2022-10-06T00:28:46.278Z,89.81
2022-10-06T00:29:46.336Z,89.72
2022-10-06T00:30:46.541Z,89.72
2022-10-06T00:31:46.704Z,89.72
2022-10-06T00:32:46.889Z,89.72
2022-10-06T00:33:47.049Z,89.81
2022-10-06T00:34:47.209Z,89.72
2022-10-06T00:35:47.369Z,89.72
2022-10-06T00:36:47.529Z,89.61
2022-10-06T00:37:47.707Z,89.61
2022-10-06T00:38:47.877Z,89.57
2022-10-06T00:39:48.043Z,89.57
2022-10-06T00:40:48.209Z,89.57
2022-10-06T00:41:48.374Z,89.57
2022-10-06T00:42:48.554Z,89.37
2022-10-06T00:43:48.729Z,89.26
2022-10-06T00:44:48.877Z,89.06
2022-10-06T00:45:49.202Z,88.72
2022-10-06T00:46:49.186Z,88.62
2022-10-06T00:47:49.385Z,88.51
2022-10-06T00:48:49.569Z,88.51
2022-10-06T00:49:49.739Z,88.51
2022-10-06T00:50:49.914Z,88.51
2022-10-06T00:51:50.111Z,88.51
2022-10-06T00:52:50.299Z,88.42
2022-10-06T00:53:50.474Z,88.21
2022-10-06T00:54:50.644Z,88.11
2022-10-06T00:55:50.802Z,87.87
2022-10-06T00:56:50.956Z,87.87
2022-10-06T00:57:51.136Z,87.77
2022-10-06T00:58:51.293Z,87.77
2022-10-06T00:59:51.445Z,87.66
2022-10-06T01:00:51.627Z,87.56
2022-10-06T01:01:51.817Z,87.56
2022-10-06T01:02:52.061Z,87.46
2022-10-06T01:03:52.189Z,87.36
2022-10-06T01:04:52.357Z,87.12
2022-10-06T01:05:52.529Z,87.12
2022-10-06T01:06:52.700Z,87.12
2022-10-06T01:07:52.896Z,86.91
2022-10-06T01:08:53.072Z,86.91
2022-10-06T01:09:53.236Z,86.91
2022-10-06T01:10:53.406Z,86.91
2022-10-06T01:11:53.570Z,86.91
2022-10-06T01:12:53.747Z,86.82
2022-10-06T01:13:53.902Z,86.82
2022-10-06T01:14:54.071Z,86.82
2022-10-06T01:15:54.315Z,86.82
2022-10-06T01:16:54.370Z,86.71
2022-10-06T01:17:54.537Z,86.71
2022-10-06T01:18:54.703Z,86.82
2022-10-06T01:19:54.857Z,86.82
2022-10-06T01:20:55.014Z,86.91
2022-10-06T01:21:55.219Z,86.91
2022-10-06T01:22:55.353Z,87.12
2022-10-06T01:23:55.506Z,87.32
2022-10-06T01:24:55.673Z,87.42
2022-10-06T01:25:55.823Z,87.42
2022-10-06T01:26:55.981Z,87.42
2022-10-06T01:27:56.197Z,87.42
2022-10-06T01:28:56.288Z,87.42
2022-10-06T01:29:56.433Z,87.42
2022-10-06T01:30:56.637Z,87.32
2022-10-06T01:31:56.757Z,87.22
2022-10-06T01:32:56.922Z,87.22
2022-10-06T01:33:57.080Z,87.22
2022-10-06T01:34:57.232Z,87.12
2022-10-06T01:35:57.401Z,87.22
2022-10-06T01:36:57.543Z,87.12
2022-10-06T01:37:57.719Z,87.12
2022-10-06T01:38:57.870Z,87.02
2022-10-06T01:39:58.020Z,86.91
2022-10-06T01:40:58.180Z,87.02
2022-10-06T01:41:58.338Z,87.02
2022-10-06T01:42:58.529Z,87.22
2022-10-06T01:43:58.679Z,87.32
2022-10-06T01:44:58.835Z,87.42
2022-10-06T01:45:59.051Z,87.42
2022-10-06T01:46:59.106Z,87.52
2022-10-06T01:47:59.297Z,87.52
2022-10-06T01:48:59.450Z,87.62
2022-10-06T01:49:59.611Z,87.62
2022-10-06T01:50:59.771Z,87.62
2022-10-06T01:51:59.920Z,87.87
2022-10-06T01:53:00.102Z,87.97
2022-10-06T01:54:00.261Z,87.97
2022-10-06T01:55:00.418Z,88.17
2022-10-06T01:56:00.574Z,88.27
2022-10-06T01:57:00.729Z,88.37
2022-10-06T01:58:00.898Z,88.48
2022-10-06T01:59:01.042Z,88.48
2022-10-06T02:00:01.205Z,88.68
2022-10-06T02:01:01.373Z,88.68
2022-10-06T02:02:01.576Z,88.78
2022-10-06T02:03:01.748Z,88.98
2022-10-06T02:04:01.942Z,89.08
2022-10-06T02:05:02.087Z,89.12
2022-10-06T02:06:02.306Z,89.23
2022-10-06T02:07:02.438Z,89.23
2022-10-06T02:08:02.615Z,89.32
2022-10-06T02:09:02.781Z,89.43
2022-10-06T02:10:02.925Z,89.53
2022-10-06T02:11:03.083Z,89.53
2022-10-06T02:12:03.244Z,89.53
2022-10-06T02:13:03.434Z,89.63
2022-10-06T02:14:03.603Z,89.83
2022-10-06T02:15:03.781Z,89.94
2022-10-06T02:16:04.013Z,90.14
2022-10-06T02:17:04.054Z,90.03
2022-10-06T02:18:04.235Z,90.03
2022-10-06T02:19:04.379Z,90.14
2022-10-06T02:20:04.535Z,90.24
2022-10-06T02:21:04.704Z,90.24
2022-10-06T02:22:04.856Z,90.34
2022-10-06T02:23:05.041Z,90.34
2022-10-06T02:24:05.196Z,90.54
2022-10-06T02:25:05.354Z,90.79
2022-10-06T02:26:05.516Z,90.89
2022-10-06T02:27:05.671Z,90.89
2022-10-06T02:28:05.926Z,90.89
2022-10-06T02:29:05.976Z,90.99
2022-10-06T02:30:06.138Z,90.99
2022-10-06T02:31:06.332Z,91.09
2022-10-06T02:32:06.460Z,91.09
2022-10-06T02:33:06.654Z,91.19
2022-10-06T02:34:06.811Z,91.19
2022-10-06T02:35:06.957Z,91.19
2022-10-06T02:36:07.117Z,91.30
2022-10-06T02:37:07.256Z,91.39
2022-10-06T02:38:07.442Z,91.39
2022-10-06T02:39:07.587Z,91.39
2022-10-06T02:40:07.743Z,91.39
2022-10-06T02:41:07.893Z,91.39
2022-10-06T02:42:08.038Z,91.50
2022-10-06T02:43:08.214Z,91.50
2022-10-06T02:44:08.360Z,91.39
2022-10-06T02:45:08.511Z,91.39
2022-10-06T02:46:08.699Z,91.39
2022-10-06T02:47:08.820Z,91.50
2022-10-06T02:48:09.001Z,91.60
2022-10-06T02:49:09.157Z,91.70
2022-10-06T02:50:09.320Z,91.80
2022-10-06T02:51:09.485Z,91.80
2022-10-06T02:52:09.635Z,91.80
2022-10-06T02:53:09.811Z,91.80
2022-10-06T02:54:09.964Z,91.80
2022-10-06T02:55:10.119Z,91.80
2022-10-06T02:56:10.276Z,91.70
2022-10-06T02:57:10.440Z,91.70
2022-10-06T02:58:10.621Z,91.60
2022-10-06T02:59:10.770Z,91.50
2022-10-06T03:00:10.925Z,91.50
2022-10-06T03:01:11.076Z,91.39
2022-10-06T03:02:11.356Z,91.30
2022-10-06T03:03:11.354Z,91.15
2022-10-06T03:04:11.504Z,91.05
2022-10-06T03:05:11.658Z,91.05
2022-10-06T03:06:11.815Z,91.05
2022-10-06T03:07:11.969Z,90.95
2022-10-06T03:08:12.132Z,90.95
2022-10-06T03:09:12.287Z,90.95
2022-10-06T03:10:12.449Z,90.95
2022-10-06T03:11:12.599Z,91.05
2022-10-06T03:12:12.757Z,91.15
2022-10-06T03:13:12.922Z,91.15
2022-10-06T03:14:14.819Z,91.15
2022-10-06T03:15:13.282Z,91.05
2022-10-06T03:16:13.508Z,91.05
2022-10-06T03:17:13.644Z,90.95
2022-10-06T03:18:13.877Z,90.84
2022-10-06T03:19:13.924Z,90.75
2022-10-06T03:20:14.076Z,90.64
2022-10-06T03:21:14.224Z,90.75
2022-10-06T03:22:14.391Z,90.64
2022-10-06T03:23:14.587Z,90.54
2022-10-06T03:24:14.746Z,90.54
2022-10-06T03:25:14.897Z,90.44
2022-10-06T03:26:15.057Z,90.44
2022-10-06T03:27:15.213Z,90.34
2022-10-06T03:28:15.631Z,90.34
2022-10-06T03:29:15.565Z,90.20
2022-10-06T03:30:15.729Z,90.09
2022-10-06T03:31:15.928Z,89.99
2022-10-06T03:32:15.997Z,89.79
2022-10-06T03:33:16.193Z,89.48
2022-10-06T03:34:16.336Z,89.28
2022-10-06T03:35:16.490Z,88.94
2022-10-06T03:36:16.643Z,88.64
2022-10-06T03:37:16.804Z,88.33
2022-10-06T03:38:17.014Z,88.23
2022-10-06T03:39:17.174Z,88.19
2022-10-06T03:40:17.341Z,88.09
2022-10-06T03:41:17.509Z,88.19
2022-10-06T03:42:17.662Z,88.39
2022-10-06T03:43:17.842Z,88.59
2022-10-06T03:44:17.987Z,89.20
2022-10-06T03:45:18.242Z,89.61
2022-10-06T03:46:18.402Z,90.41
2022-10-06T03:47:18.464Z,91.12
2022-10-06T03:48:18.685Z,91.87
2022-10-06T03:49:18.720Z,92.68
2022-10-06T03:50:18.880Z,93.49
2022-10-06T03:51:19.033Z,94.04
2022-10-06T03:52:22.395Z,94.14
2022-10-06T03:53:20.309Z,94.14
2022-10-06T03:54:19.456Z,93.74
2022-10-06T03:55:19.605Z,94.04
2022-10-06T03:56:19.764Z,94.14
2022-10-06T03:57:19.927Z,93.74
2022-10-06T03:58:20.085Z,94.35
2022-10-06T03:59:20.243Z,94.14
2022-10-06T04:00:20.405Z,94.04
2022-10-06T04:01:25.723Z,94.14
2022-10-06T04:02:21.723Z,94.24
2022-10-06T04:03:20.872Z,94.65
2022-10-06T04:04:21.040Z,94.55
2022-10-06T04:05:21.227Z,94.75
2022-10-06T04:06:21.382Z,94.95
2022-10-06T04:07:21.539Z,94.85
2022-10-06T04:08:21.701Z,94.75
2022-10-06T04:09:21.859Z,94.85
2022-10-06T04:10:22.032Z,94.75
2022-10-06T04:11:22.175Z,94.85
2022-10-06T04:12:22.329Z,94.24
2022-10-06T04:13:22.500Z,94.35
2022-10-06T04:14:22.669Z,93.94
2022-10-06T04:15:22.833Z,93.63
2022-10-06T04:16:23.043Z,93.13
2022-10-06T04:17:23.203Z,93.54
2022-10-06T04:18:23.361Z,93.23
2022-10-06T04:19:23.514Z,93.23
2022-10-06T04:20:23.679Z,92.22
2022-10-06T04:21:23.828Z,92.52
2022-10-06T04:22:23.988Z,91.61
2022-10-06T04:23:24.150Z,91.61
2022-10-06T04:24:24.328Z,91.20
2022-10-06T04:25:24.490Z,90.40
2022-10-06T04:26:24.645Z,89.89
2022-10-06T04:27:24.807Z,89.28
2022-10-06T04:28:25.039Z,89.39
2022-10-06T04:29:25.179Z,88.57
2022-10-06T04:30:25.339Z,88.98
2022-10-06T04:31:25.562Z,86.25
2022-10-06T04:32:25.708Z,85.84
2022-10-06T04:33:25.873Z,86.35
2022-10-06T04:34:26.994Z,87.16
2022-10-06T04:35:26.148Z,86.76
2022-10-06T04:36:26.308Z,86.25
2022-10-06T04:37:26.515Z,86.05
2022-10-06T04:38:27.011Z,85.94
2022-10-06T04:39:26.887Z,85.64
2022-10-06T04:40:27.083Z,85.44
2022-10-06T04:41:27.223Z,84.33
2022-10-06T04:42:29.323Z,84.83
2022-10-06T04:43:28.546Z,83.47
2022-10-06T04:44:27.725Z,82.67
2022-10-06T04:45:27.951Z,83.27
2022-10-06T04:46:42.857Z,82.67
2022-10-06T04:47:29.158Z,82.97
2022-10-06T04:48:28.624Z,82.56
2022-10-06T04:49:28.438Z,82.56
2022-10-06T04:50:28.621Z,81.96
2022-10-06T04:51:28.789Z,81.49
2022-10-06T04:52:28.965Z,81.76
2022-10-06T04:53:29.126Z,81.96
2022-10-06T04:54:33.527Z,82.30
2022-10-06T04:55:29.419Z,82.20
2022-10-06T04:56:29.596Z,82.20
2022-10-06T04:57:29.769Z,82.40
2022-10-06T04:58:30.214Z,81.69
2022-10-06T04:59:30.165Z,81.90
2022-10-06T05:00:30.349Z,82.10
2022-10-06T05:01:31.509Z,81.49
2022-10-06T05:02:30.748Z,81.49
2022-10-06T05:03:30.787Z,81.69
2022-10-06T05:04:30.954Z,81.09
2022-10-06T05:05:31.134Z,81.49
2022-10-06T05:06:31.309Z,81.09
2022-10-06T05:07:31.534Z,80.78
2022-10-06T05:08:32.292Z,80.58
2022-10-06T05:09:31.917Z,79.87
2022-10-06T05:10:32.082Z,79.46
2022-10-06T05:11:32.246Z,79.97
2022-10-06T05:12:32.413Z,79.97
2022-10-06T05:13:32.576Z,80.27
2022-10-06T05:14:32.762Z,80.38
2022-10-06T05:15:32.923Z,80.68
2022-10-06T05:16:33.136Z,80.88
2022-10-06T05:17:33.177Z,81.09
2022-10-06T05:18:33.325Z,81.59
2022-10-06T05:19:33.487Z,81.18
2022-10-06T05:20:33.650Z,81.18
2022-10-06T05:21:33.803Z,81.18
2022-10-06T05:22:33.960Z,81.18
2022-10-06T05:23:34.111Z,81.59
2022-10-06T05:24:34.270Z,81.69
2022-10-06T05:25:34.431Z,80.78
2022-10-06T05:26:34.583Z,80.68
2022-10-06T05:27:34.734Z,80.78
2022-10-06T05:28:34.916Z,80.68
2022-10-06T05:29:35.012Z,80.62
2022-10-06T05:30:35.388Z,80.18
2022-10-06T05:31:35.407Z,80.01
2022-10-06T05:32:36.313Z,79.80
2022-10-06T05:33:35.733Z,79.80
2022-10-06T05:34:35.895Z,79.20
2022-10-06T05:35:36.045Z,78.89
2022-10-06T05:36:36.203Z,78.89
2022-10-06T05:37:36.355Z,77.98
2022-10-06T05:38:36.519Z,78.08
2022-10-06T05:39:36.694Z,77.98
2022-10-06T05:40:36.872Z,77.17
2022-10-06T05:41:37.037Z,77.07
2022-10-06T05:42:37.197Z,77.37
2022-10-06T05:43:37.359Z,77.07
2022-10-06T05:44:37.583Z,76.87
2022-10-06T05:45:37.667Z,76.97
2022-10-06T05:46:37.818Z,76.87
2022-10-06T05:47:37.951Z,77.28
2022-10-06T05:48:38.111Z,76.77
2022-10-06T05:49:38.304Z,76.77
2022-10-06T05:50:38.471Z,76.36
2022-10-06T05:51:38.675Z,76.36
2022-10-06T05:52:38.831Z,76.46
2022-10-06T05:53:38.982Z,76.36
2022-10-06T05:54:39.147Z,76.56
2022-10-06T05:55:39.305Z,76.16
2022-10-06T05:56:39.457Z,76.06
2022-10-06T05:57:39.857Z,76.26
2022-10-06T05:58:39.767Z,76.50
2022-10-06T05:59:39.935Z,76.70
2022-10-06T06:00:40.097Z,76.60
2022-10-06T06:01:40.390Z,76.70
2022-10-06T06:02:40.502Z,76.80
2022-10-06T06:03:40.658Z,76.60
2022-10-06T06:04:40.818Z,76.80
2022-10-06T06:05:40.990Z,76.80
2022-10-06T06:06:41.146Z,77.01
2022-10-06T06:07:41.305Z,77.21
2022-10-06T06:08:41.464Z,77.55
2022-10-06T06:09:41.629Z,77.75
2022-10-06T06:10:41.790Z,77.75
2022-10-06T06:11:41.955Z,77.51
2022-10-06T06:12:42.143Z,77.11
2022-10-06T06:13:42.324Z,77.11
2022-10-06T06:14:42.494Z,76.97
2022-10-06T06:15:42.663Z,75.28
2022-10-06T06:16:42.865Z,73.69
2022-10-06T06:17:43.080Z,72.41
2022-10-06T06:18:43.204Z,71.26
2022-10-06T06:19:43.371Z,70.86
2022-10-06T06:20:43.531Z,70.22
2022-10-06T06:21:43.679Z,69.62
2022-10-06T06:22:43.824Z,69.82
2022-10-06T06:23:50.987Z,68.98
2022-10-06T06:24:46.782Z,68.65
2022-10-06T06:25:44.253Z,68.54
2022-10-06T06:26:45.117Z,68.24
2022-10-06T06:27:44.598Z,68.24
2022-10-06T06:28:44.808Z,67.91
2022-10-06T06:29:44.858Z,67.37
2022-10-06T06:30:45.032Z,66.67
2022-10-06T06:31:45.230Z,66.56
2022-10-06T06:32:45.352Z,66.67
2022-10-06T06:33:45.497Z,65.83
2022-10-06T06:34:45.663Z,66.06
2022-10-06T06:35:45.828Z,66.13
2022-10-06T06:36:45.964Z,66.23
2022-10-06T06:37:46.107Z,65.50
2022-10-06T06:38:46.245Z,65.06
2022-10-06T06:39:46.401Z,63.96
2022-10-06T06:40:46.558Z,64.66
2022-10-06T06:41:46.689Z,64.36
2022-10-06T06:42:50.380Z,63.90
2022-10-06T06:43:47.919Z,62.89
2022-10-06T06:44:47.061Z,63.12
2022-10-06T06:45:47.220Z,64.13
2022-10-06T06:46:47.361Z,62.56
2022-10-06T06:47:47.492Z,61.63
2022-10-06T06:48:47.634Z,61.72
2022-10-06T06:49:47.768Z,63.56
2022-10-06T06:50:47.900Z,66.47
2022-10-06T06:51:48.023Z,68.07
2022-10-06T06:52:48.140Z,69.72
2022-10-06T06:53:48.265Z,70.79
2022-10-06T06:54:48.406Z,71.73
2022-10-06T06:55:48.532Z,70.19
2022-10-06T06:56:48.659Z,70.12
2022-10-06T06:57:48.780Z,69.62
2022-10-06T06:58:48.918Z,71.26
2022-10-06T06:59:49.081Z,71.50
2022-10-06T07:00:49.214Z,72.34
2022-10-06T07:01:49.463Z,71.94
2022-10-06T07:02:49.420Z,69.89
2022-10-06T07:03:58.330Z,71.17
2022-10-06T07:04:50.651Z,70.76
2022-10-06T07:05:49.811Z,70.09
2022-10-06T07:06:49.945Z,67.88
2022-10-06T07:07:50.091Z,66.60
2022-10-06T07:08:50.221Z,65.77
2022-10-06T07:09:50.380Z,65.56
2022-10-06T07:10:50.492Z,65.23
2022-10-06T07:11:50.632Z,64.70
2022-10-06T07:12:50.777Z,66.27
2022-10-06T07:13:50.910Z,64.90
2022-10-06T07:14:51.055Z,63.23
2022-10-06T07:15:51.221Z,63.43
2022-10-06T07:16:51.328Z,62.50
2022-10-06T07:17:51.457Z,61.97
2022-10-06T07:18:51.580Z,61.87
2022-10-06T07:19:51.707Z,62.80
2022-10-06T07:20:51.825Z,63.13
2022-10-06T07:21:51.948Z,62.90
2022-10-06T07:22:52.063Z,62.37
2022-10-06T07:23:52.174Z,62.00
2022-10-06T07:24:52.308Z,64.07
2022-10-06T07:25:52.432Z,62.70
2022-10-06T07:26:52.564Z,64.27
2022-10-06T07:27:52.680Z,63.87
2022-10-06T07:28:52.788Z,62.57
2022-10-06T07:29:53.145Z,60.91
2022-10-06T07:30:52.991Z,61.70
2022-10-06T07:31:53.102Z,62.93
2022-10-06T07:32:53.209Z,64.73
2022-10-06T07:33:53.324Z,64.04
2022-10-06T07:34:53.504Z,62.04
2022-10-06T07:35:53.581Z,61.61
2022-10-06T07:36:53.679Z,60.75
2022-10-06T07:37:53.803Z,59.25
2022-10-06T07:38:53.907Z,61.24
2022-10-06T07:39:54.028Z,62.77
2022-10-06T07:41:18.409Z,63.40
2022-10-06T07:41:55.201Z,61.31
2022-10-06T07:42:54.292Z,60.48
2022-10-06T07:43:54.389Z,60.64
2022-10-06T07:44:55.170Z,61.36
2022-10-06T07:45:54.599Z,63.56
2022-10-06T07:46:54.669Z,65.33
2022-10-06T07:47:54.767Z,66.97
2022-10-06T07:48:54.862Z,66.60
2022-10-06T07:49:54.979Z,67.54
2022-10-06T07:50:55.083Z,68.38
2022-10-06T07:51:55.186Z,69.01
2022-10-06T07:52:55.293Z,69.52
2022-10-06T07:53:55.403Z,69.09
2022-10-06T07:54:56.128Z,69.42
2022-10-06T07:55:55.651Z,69.45
2022-10-06T07:56:55.768Z,70.39
2022-10-06T07:57:55.886Z,70.29
2022-10-06T07:58:56.015Z,65.87
2022-10-06T07:59:59.152Z,63.82
2022-10-06T08:00:57.202Z,64.79
2022-10-06T08:01:56.342Z,66.19
2022-10-06T08:02:56.537Z,68.51
2022-10-06T08:03:56.512Z,69.42
2022-10-06T08:04:56.993Z,70.26
2022-10-06T08:05:56.778Z,70.62
2022-10-06T08:06:56.921Z,66.71
2022-10-06T08:07:57.041Z,63.29
2022-10-06T08:08:57.144Z,62.19
2022-10-06T08:09:57.283Z,64.12
2022-10-06T08:11:00.314Z,62.55
2022-10-06T08:11:57.504Z,61.69
2022-10-06T08:12:57.602Z,60.06
2022-10-06T08:13:57.708Z,58.63
2022-10-06T08:15:00.608Z,58.99
2022-10-06T08:15:58.931Z,59.42
2022-10-06T08:16:58.016Z,59.09
2022-10-06T08:17:58.126Z,57.73
2022-10-06T08:18:58.224Z,57.13
2022-10-06T08:19:58.346Z,58.26
2022-10-06T08:20:58.460Z,58.66
2022-10-06T08:22:02.443Z,56.57
2022-10-06T08:22:59.603Z,55.72
2022-10-06T08:23:58.688Z,54.12
2022-10-06T08:25:06.153Z,57.06
2022-10-06T08:25:59.837Z,59.85
2022-10-06T08:26:58.919Z,58.09
2022-10-06T08:27:59.063Z,58.87
2022-10-06T08:28:59.180Z,60.08
2022-10-06T08:29:59.282Z,60.53
2022-10-06T08:30:59.424Z,58.37
2022-10-06T08:31:59.666Z,58.24
2022-10-06T08:32:59.563Z,56.38
2022-10-06T08:33:59.657Z,56.93
2022-10-06T08:34:59.775Z,56.78
2022-10-06T08:35:59.860Z,56.18
2022-10-06T08:37:19.512Z,56.63
2022-10-06T08:38:00.989Z,59.00
2022-10-06T08:39:00.094Z,57.21
2022-10-06T08:40:00.208Z,55.05
2022-10-06T08:41:00.292Z,56.23
2022-10-06T08:42:00.402Z,57.79
2022-10-06T08:43:00.508Z,56.21
2022-10-06T08:44:00.637Z,55.58
2022-10-06T08:45:00.730Z,55.85
2022-10-06T08:46:00.834Z,56.46
2022-10-06T08:47:00.962Z,55.80
2022-10-06T08:48:01.029Z,54.45
2022-10-06T08:49:01.121Z,53.30
2022-10-06T08:50:01.247Z,52.67
2022-10-06T08:51:01.331Z,53.07
2022-10-06T08:52:01.427Z,52.67
2022-10-06T08:53:01.539Z,51.07
2022-10-06T08:54:01.618Z,49.90
2022-10-06T08:55:01.715Z,53.32
2022-10-06T08:56:01.809Z,52.72
2022-10-06T08:57:01.889Z,51.46
2022-10-06T08:58:02.026Z,50.54
2022-10-06T08:59:02.006Z,50.64
2022-10-06T09:00:02.104Z,51.67
2022-10-06T09:01:02.238Z,50.12
2022-10-06T09:02:02.284Z,49.59
2022-10-06T09:03:02.328Z,51.07
2022-10-06T09:04:02.411Z,51.07
2022-10-06T09:05:02.519Z,50.42
2022-10-06T09:06:02.597Z,49.91
2022-10-06T09:07:04.521Z,50.67
2022-10-06T09:08:02.763Z,50.64
2022-10-06T09:09:02.835Z,49.99
2022-10-06T09:10:02.929Z,49.05
2022-10-06T09:11:03.000Z,48.20
2022-10-06T09:12:03.109Z,48.63
2022-10-06T09:13:03.168Z,48.35
2022-10-06T09:14:03.272Z,48.63
2022-10-06T09:15:03.293Z,47.50
2022-10-06T09:16:03.333Z,47.71
2022-10-06T09:17:03.310Z,47.63
2022-10-06T09:18:03.370Z,48.02
2022-10-06T09:19:08.620Z,47.77
2022-10-06T09:20:04.462Z,48.60
2022-10-06T09:21:03.522Z,47.95
2022-10-06T09:22:03.612Z,47.77
2022-10-06T09:23:03.579Z,47.95
2022-10-06T09:24:03.640Z,47.18
2022-10-06T09:25:03.700Z,45.34
2022-10-06T09:26:03.793Z,44.82
2022-10-06T09:27:03.840Z,44.84
2022-10-06T09:28:03.949Z,45.36
2022-10-06T09:29:03.885Z,46.80
2022-10-06T09:30:03.950Z,47.35
2022-10-06T09:31:04.081Z,46.80
2022-10-06T09:32:04.022Z,47.37
2022-10-06T09:33:04.080Z,47.60
2022-10-06T09:34:04.146Z,48.44
2022-10-06T09:35:04.196Z,49.57
2022-10-06T09:36:04.267Z,49.14
2022-10-06T09:37:04.321Z,50.62
2022-10-06T09:38:08.584Z,50.59
2022-10-06T09:39:04.411Z,49.19
2022-10-06T09:40:04.471Z,49.44
2022-10-06T09:41:04.546Z,50.79
2022-10-06T09:42:04.629Z,50.04
2022-10-06T09:43:04.700Z,48.47
2022-10-06T09:44:04.772Z,47.71
2022-10-06T09:45:04.840Z,46.70
2022-10-06T09:46:04.955Z,46.66
2022-10-06T09:47:04.916Z,45.84
2022-10-06T09:48:04.971Z,46.44
2022-10-06T09:49:05.027Z,45.62
2022-10-06T09:50:05.081Z,45.52
2022-10-06T09:51:05.155Z,45.54
2022-10-06T09:52:05.207Z,47.72
2022-10-06T09:53:05.249Z,47.72
2022-10-06T09:54:05.301Z,48.45
2022-10-06T09:55:05.332Z,47.97
2022-10-06T09:56:05.392Z,47.87
2022-10-06T09:57:05.454Z,49.22
2022-10-06T09:58:05.513Z,48.90
2022-10-06T09:59:05.570Z,48.47
2022-10-06T10:00:05.619Z,47.95
2022-10-06T10:01:05.763Z,47.10
2022-10-06T10:02:05.712Z,46.58
2022-10-06T10:03:05.776Z,46.70
2022-10-06T10:04:19.918Z,47.40
2022-10-06T10:05:06.905Z,46.56
2022-10-06T10:06:05.852Z,46.16
2022-10-06T10:07:05.899Z,47.22
2022-10-06T10:08:05.947Z,48.69
2022-10-06T10:09:05.991Z,49.52
2022-10-06T10:10:06.046Z,51.17
2022-10-06T10:11:06.105Z,51.74
2022-10-06T10:12:06.165Z,50.74
2022-10-06T10:13:06.216Z,50.49
2022-10-06T10:14:06.268Z,50.72
2022-10-06T10:15:06.337Z,49.42
2022-10-06T10:16:06.485Z,48.85
2022-10-06T10:17:06.424Z,49.27
2022-10-06T10:18:06.486Z,47.60
2022-10-06T10:19:06.534Z,48.55
2022-10-06T10:20:06.593Z,47.65
2022-10-06T10:21:06.663Z,48.69
2022-10-06T10:22:06.717Z,49.79
2022-10-06T10:23:06.788Z,48.37
2022-10-06T10:24:06.846Z,46.62
2022-10-06T10:25:06.906Z,45.83
2022-10-06T10:26:06.954Z,47.39
2022-10-06T10:27:07.013Z,47.25
2022-10-06T10:28:07.116Z,47.52
2022-10-06T10:29:07.084Z,48.44
2022-10-06T10:30:07.144Z,49.89
2022-10-06T10:31:07.261Z,48.54
2022-10-06T10:32:07.216Z,48.04
2022-10-06T10:33:07.293Z,48.96
2022-10-06T10:34:12.495Z,48.49
2022-10-06T10:35:08.395Z,47.52
2022-10-06T10:36:07.459Z,47.52
2022-10-06T10:37:07.539Z,46.30
2022-10-06T10:38:10.026Z,45.65
2022-10-06T10:39:08.646Z,45.67
2022-10-06T10:40:07.701Z,45.67
2022-10-06T10:41:07.770Z,46.69
2022-10-06T10:42:07.835Z,45.65
2022-10-06T10:43:07.896Z,44.41
2022-10-06T10:44:07.961Z,43.35
2022-10-06T10:45:08.024Z,43.25
2022-10-06T10:46:08.085Z,43.15
2022-10-06T10:47:08.155Z,43.35
2022-10-06T10:48:08.207Z,42.73
2022-10-06T10:49:08.265Z,41.99
2022-10-06T10:50:08.317Z,41.06
2022-10-06T10:51:08.374Z,40.66
2022-10-06T10:52:08.415Z,39.84
2022-10-06T10:53:08.537Z,39.43
2022-10-06T10:54:08.510Z,40.82
2022-10-06T10:55:08.557Z,41.00
2022-10-06T10:56:08.584Z,41.09
2022-10-06T10:57:08.620Z,40.78
2022-10-06T10:58:08.645Z,40.24
2022-10-06T10:59:08.696Z,39.63
2022-10-06T11:00:08.725Z,39.83
2022-10-06T11:01:08.799Z,40.12
2022-10-06T11:02:08.814Z,40.09
2022-10-06T11:03:08.718Z,38.85
2022-10-06T11:04:08.759Z,38.26
2022-10-06T11:05:08.790Z,38.88
2022-10-06T11:06:08.825Z,39.19
2022-10-06T11:07:08.849Z,39.01
2022-10-06T11:08:08.869Z,40.76
2022-10-06T11:09:08.898Z,41.75
2022-10-06T11:10:08.917Z,45.59
2022-10-06T11:11:08.986Z,47.78
2022-10-06T11:12:09.019Z,47.02
2022-10-06T11:13:09.045Z,46.37
2022-10-06T11:14:09.091Z,45.43
2022-10-06T11:15:09.137Z,44.35
2022-10-06T11:16:09.254Z,43.01
2022-10-06T11:17:09.194Z,43.01
2022-10-06T11:18:09.243Z,44.35
2022-10-06T11:19:09.291Z,44.71
2022-10-06T11:20:09.337Z,45.71
2022-10-06T11:21:09.389Z,44.37
2022-10-06T11:22:09.428Z,45.63
2022-10-06T11:23:09.470Z,45.21
2022-10-06T11:24:09.521Z,44.32
2022-10-06T11:25:09.574Z,41.97
2022-10-06T11:26:09.617Z,42.19
2022-10-06T11:27:09.663Z,43.39
2022-10-06T11:28:09.751Z,45.37
2022-10-06T11:29:09.706Z,44.81
2022-10-06T11:30:09.755Z,43.19
2022-10-06T11:31:09.884Z,42.97
2022-10-06T11:32:09.801Z,42.23
2022-10-06T11:33:09.841Z,41.50
2022-10-06T11:34:09.881Z,41.61
2022-10-06T11:35:09.918Z,41.09
2022-10-06T11:36:09.957Z,40.68
2022-10-06T11:37:10.000Z,40.70
2022-10-06T11:38:10.032Z,40.46
2022-10-06T11:39:10.080Z,40.06
2022-10-06T11:40:10.131Z,39.76
2022-10-06T11:41:10.446Z,40.36
2022-10-06T11:42:10.199Z,40.56
2022-10-06T11:43:10.242Z,40.66
2022-10-06T11:44:10.271Z,40.90
2022-10-06T11:45:10.313Z,40.46
2022-10-06T11:46:10.363Z,40.14
2022-10-06T11:47:10.387Z,40.30
2022-10-06T11:48:10.482Z,39.89
2022-10-06T11:49:10.404Z,39.07
2022-10-06T11:50:10.436Z,38.76
2022-10-06T11:51:10.451Z,39.01
2022-10-06T11:52:10.478Z,38.93
2022-10-06T11:53:10.503Z,39.37
2022-10-06T11:54:10.513Z,40.50
2022-10-06T11:55:10.531Z,41.30
2022-10-06T11:56:10.562Z,41.30
2022-10-06T11:57:10.585Z,40.78
2022-10-06T11:59:11.585Z,39.25
2022-10-06T12:00:10.666Z,39.84
2022-10-06T12:01:10.672Z,40.08
2022-10-06T12:02:10.774Z,40.52
2022-10-06T12:03:10.869Z,40.72
2022-10-06T12:04:10.775Z,40.50
2022-10-06T12:05:35.682Z,39.76
2022-10-06T12:06:11.791Z,39.45
2022-10-06T12:07:10.823Z,38.16
2022-10-06T12:08:10.854Z,38.79
2022-10-06T12:09:10.888Z,39.92
2022-10-06T12:10:10.903Z,40.00
2022-10-06T12:11:10.943Z,39.72
2022-10-06T12:12:10.992Z,39.31
2022-10-06T12:13:21.307Z,39.18
2022-10-06T12:15:31.838Z,38.89
2022-10-06T12:17:16.931Z,39.72
2022-10-06T12:18:11.910Z,39.42
2022-10-06T12:19:10.953Z,39.62
2022-10-06T12:20:10.990Z,39.53
2022-10-06T12:21:11.034Z,39.31
2022-10-06T12:22:11.070Z,39.07
2022-10-06T12:23:11.106Z,38.35
2022-10-06T12:24:18.154Z,38.47
2022-10-06T12:25:11.167Z,38.37
2022-10-06T12:26:11.218Z,39.31
2022-10-06T12:27:11.255Z,39.72
2022-10-06T12:28:11.323Z,41.67
2022-10-06T12:29:11.343Z,41.36
2022-10-06T12:30:11.374Z,40.76
2022-10-06T12:31:15.797Z,41.60
2022-10-06T12:32:12.424Z,41.97
2022-10-06T12:33:11.463Z,40.52
2022-10-06T12:34:11.502Z,39.98
2022-10-06T12:35:11.551Z,38.77
2022-10-06T12:36:11.613Z,39.65
2022-10-06T12:37:11.670Z,38.64
2022-10-06T12:38:11.700Z,38.26
2022-10-06T12:39:11.728Z,40.00
2022-10-06T12:40:11.777Z,39.69
2022-10-06T12:41:11.831Z,39.63
2022-10-06T12:42:11.870Z,37.81
2022-10-06T12:43:11.906Z,38.02
2022-10-06T12:44:11.935Z,39.01
2022-10-06T12:45:11.960Z,37.62
2022-10-06T12:46:12.033Z,38.02
2022-10-06T12:47:12.062Z,38.04
2022-10-06T12:48:12.080Z,38.02
2022-10-06T12:49:12.123Z,38.57
2022-10-06T12:50:12.164Z,39.37
2022-10-06T12:51:12.219Z,39.27
2022-10-06T12:52:12.249Z,40.34
2022-10-06T12:53:12.278Z,41.25
2022-10-06T12:54:12.313Z,40.32
2022-10-06T12:55:12.347Z,40.24
2022-10-06T12:56:12.405Z,40.72
2022-10-06T12:57:12.442Z,40.12